Time;durP1;ratioP1;P1;durP2;ratioP2;P2;SDS_P1;SDS_P2;PMS_P1;PMS_P2;Temp;Humidity;BMP_temperature;BMP_pressure;BME280_temperature;BME280_humidity;BME280_pressure;Samples;Min_cycle;Max_cycle;Signal;HPM_P1;HPM_P2
2022/11/09 00:02:16;;;;;;;;;;;;;;;9.02;71.16;95815.56;5056088;28;1046;-81
2022/11/09 00:04:42;;;;;;;;;;;;;;;9.10;71.08;95812.22;5056130;28;1906;-82
2022/11/09 00:07:09;;;;;;;;;;;;;;;9.09;71.08;95815.88;5056115;28;1054;-81
2022/11/09 00:09:35;;;;;;;;;;;;;;;8.90;71.53;95812.16;5056042;28;1038;-82
2022/11/09 00:12:03;;;;;;;;;;;;;;;8.83;72.20;95813.66;5038322;28;1018;-82
2022/11/09 00:14:30;;;;;;;;;;;;;;;9.07;72.18;95812.47;5037841;28;1698;-82
2022/11/09 00:16:56;;;;;;;;;;;;;;;9.30;71.96;95813.97;5038229;28;1018;-83
2022/11/09 00:19:22;;;;;;;;;;;;;;;9.44;71.92;95818.06;5055849;28;1113;-82
2022/11/09 00:21:49;;;;;;;;;;;;;;;9.35;72.32;95816.19;5037895;28;1066;-84
2022/11/09 00:24:15;;;;;;;;;;;;;;;9.28;72.03;95809.75;5055550;28;1910;-82
2022/11/09 00:26:41;;;;;;;;;;;;;;;9.24;71.78;95819.84;5055795;28;966;-82
2022/11/09 00:29:08;;;;;;;;;;;;;;;9.13;70.75;95822.63;5055569;28;1046;-82
2022/11/09 00:31:34;;;;;;;;;;;;;;;9.03;71.38;95811.94;5055971;28;972;-83
2022/11/09 00:34:00;;;;;;;;;;;;;;;9.04;71.00;95816.28;5055910;28;962;-82
2022/11/09 00:36:28;;;;;;;;;;;;;;;9.03;70.75;95809.25;5034641;28;1082;-83
2022/11/09 00:38:55;;;;;;;;;;;;;;;8.95;70.80;95809.94;5023028;28;1270;-84
2022/11/09 00:41:22;;;;;;;;;;;;;;;9.01;69.75;95819.22;5035425;28;1062;-82
2022/11/09 00:43:48;;;;;;;;;;;;;;;8.74;70.67;95817.13;5017927;28;1079;-83
2022/11/09 00:46:15;;;;;;;;;;;;;;;8.68;71.13;95820.34;5035285;28;1902;-82
2022/11/09 00:48:41;;;;;;;;;;;;;;;8.66;70.99;95819.63;5038002;28;1009;-82
2022/11/09 00:51:08;;;;;;;;;;;;;;;8.70;71.28;95815.72;5055659;28;1025;-82
2022/11/09 00:53:34;;;;;;;;;;;;;;;8.76;70.92;95820.50;5037506;28;1246;-83
2022/11/09 00:56:03;;;;;;;;;;;;;;;8.87;70.57;95816.91;5054847;28;1448;-82
2022/11/09 00:58:30;;;;;;;;;;;;;;;8.70;70.65;95819.22;5037435;28;1001;-83
2022/11/09 01:00:57;;;;;;;;;;;;;;;8.66;70.67;95825.78;5055147;28;1062;-83
2022/11/09 01:03:23;;;;;;;;;;;;;;;8.87;70.30;95827.59;5037383;28;1485;-82
2022/11/09 01:05:50;;;;;;;;;;;;;;;8.75;70.06;95824.16;5054474;28;1985;-84
2022/11/09 01:08:17;;;;;;;;;;;;;;;8.48;70.83;95825.56;5054759;28;1129;-82
2022/11/09 01:10:44;;;;;;;;;;;;;;;8.44;71.00;95821.47;5054715;28;1066;-81
2022/11/09 01:13:11;;;;;;;;;;;;;;;8.23;71.73;95823.28;5036910;28;1576;-80
2022/11/09 01:15:55;;;;;;;;;;;;;;;8.57;71.61;95818.59;5035186;28;986;-82
2022/11/09 01:18:22;;;;;;;;;;;;;;;8.83;70.39;95805.66;5035156;28;1089;-83
2022/11/09 01:20:49;;;;;;;;;;;;;;;8.91;69.19;95819.16;5053789;28;1393;-84
2022/11/09 01:23:16;;;;;;;;;;;;;;;8.83;68.98;95804.84;5035130;28;986;-81
2022/11/09 01:25:42;;;;;;;;;;;;;;;8.36;70.09;95811.44;5053654;28;1979;-83
2022/11/09 01:28:09;;;;;;;;;;;;;;;8.31;70.61;95808.34;5053997;28;1005;-82
2022/11/09 01:30:37;;;;;;;;;;;;;;;8.42;70.79;95811.91;5053559;28;1057;-83
2022/11/09 01:33:03;;;;;;;;;;;;;;;8.51;70.53;95811.97;5053515;28;1058;-79
2022/11/09 01:35:31;;;;;;;;;;;;;;;8.33;70.96;95810.88;5053576;28;1140;-85
2022/11/09 01:37:58;;;;;;;;;;;;;;;8.28;71.13;95803.25;5046537;28;1084;-84
2022/11/09 01:40:25;;;;;;;;;;;;;;;8.43;70.09;95810.97;5015805;28;1217;-84
2022/11/09 01:42:51;;;;;;;;;;;;;;;8.10;70.35;95803.00;5033746;28;1065;-84
2022/11/09 01:45:17;;;;;;;;;;;;;;;8.00;70.93;95813.56;5033513;28;1906;-82
2022/11/09 01:47:53;;;;;;;;;;;;;;;8.00;71.30;95815.41;5033704;28;1006;-83
2022/11/09 01:50:23;;;;;;;;;;;;;;;8.00;71.72;95818.91;5033460;28;1109;-83
2022/11/09 01:52:49;;;;;;;;;;;;;;;8.20;70.58;95806.56;5033342;28;1065;-84
2022/11/09 01:55:17;;;;;;;;;;;;;;;8.09;70.35;95819.97;5028935;28;1765;-84
2022/11/09 01:57:48;;;;;;;;;;;;;;;8.05;70.42;95807.88;5053441;28;990;-84
2022/11/09 02:00:15;;;;;;;;;;;;;;;8.13;70.46;95809.88;5035705;28;973;-82
2022/11/09 02:02:54;;;;;;;;;;;;;;;8.11;70.31;95815.34;5035619;28;967;-83
2022/11/09 02:05:25;;;;;;;;;;;;;;;7.82;71.01;95826.63;5035371;28;1910;-83
2022/11/09 02:07:51;;;;;;;;;;;;;;;7.80;70.89;95817.09;5053438;28;1002;-83
2022/11/09 02:10:37;;;;;;;;;;;;;;;7.90;70.62;95823.31;5053290;28;1025;-83
2022/11/09 02:13:04;;;;;;;;;;;;;;;7.78;71.18;95817.22;5035647;28;969;-83
2022/11/09 02:15:30;;;;;;;;;;;;;;;7.81;70.87;95824.09;5053199;28;943;-83
2022/11/09 02:17:57;;;;;;;;;;;;;;;7.94;70.93;95824.75;5055669;28;1060;-84
2022/11/09 02:20:24;;;;;;;;;;;;;;;7.98;70.81;95825.34;5057385;28;1040;-83
2022/11/09 02:22:50;;;;;;;;;;;;;;;8.12;70.15;95827.69;5057365;28;950;-84
2022/11/09 02:25:16;;;;;;;;;;;;;;;7.93;70.74;95820.41;5039443;28;1989;-82
2022/11/09 02:27:43;;;;;;;;;;;;;;;7.99;70.02;95825.22;5039618;28;1022;-83
2022/11/09 02:30:10;;;;;;;;;;;;;;;7.88;70.10;95824.44;5039402;28;1109;-82
2022/11/09 02:32:37;;;;;;;;;;;;;;;7.78;70.57;95835.00;5039250;28;918;-84
2022/11/09 02:35:03;;;;;;;;;;;;;;;7.66;70.79;95830.69;5039533;28;970;-82
2022/11/09 02:37:34;;;;;;;;;;;;;;;7.70;71.00;95826.78;5056736;28;1151;-84
2022/11/09 02:40:03;;;;;;;;;;;;;;;7.72;71.15;95816.84;5035691;28;1363;-83
2022/11/09 02:42:29;;;;;;;;;;;;;;;7.70;70.55;95840.09;5036839;28;1132;-83
2022/11/09 02:44:57;;;;;;;;;;;;;;;7.66;70.59;95825.34;5035711;28;1902;-83
2022/11/09 02:47:23;;;;;;;;;;;;;;;7.69;70.16;95825.13;5036849;28;997;-83
2022/11/09 02:49:49;;;;;;;;;;;;;;;7.60;70.40;95832.03;5037027;28;1021;-84
2022/11/09 02:52:16;;;;;;;;;;;;;;;7.63;70.62;95837.94;5035683;28;1054;-84
2022/11/09 02:54:42;;;;;;;;;;;;;;;7.71;70.28;95832.00;5035612;28;1767;-83
2022/11/09 02:57:08;;;;;;;;;;;;;;;7.65;70.05;95829.00;5035501;28;1072;-84
2022/11/09 02:59:34;;;;;;;;;;;;;;;7.85;70.82;95830.84;5036599;28;1058;-83
2022/11/09 03:02:01;;;;;;;;;;;;;;;8.09;70.31;95837.75;5035600;28;1212;-83
2022/11/09 03:04:27;;;;;;;;;;;;;;;7.91;70.33;95825.03;5036383;28;1994;-82
2022/11/09 03:06:53;;;;;;;;;;;;;;;7.82;70.97;95831.94;5036804;28;978;-83
2022/11/09 03:09:19;;;;;;;;;;;;;;;8.02;71.54;95832.09;5035389;28;1017;-83
2022/11/09 03:11:45;;;;;;;;;;;;;;;8.07;73.09;95834.38;5035572;28;1036;-83
2022/11/09 03:14:11;;;;;;;;;;;;;;;8.12;73.05;95834.81;5035187;28;1120;-83
2022/11/09 03:16:38;;;;;;;;;;;;;;;7.87;72.23;95844.88;5036196;28;1061;-83
2022/11/09 03:19:04;;;;;;;;;;;;;;;7.81;72.41;95842.72;5036519;28;981;-83
2022/11/09 03:21:30;;;;;;;;;;;;;;;7.77;72.62;95847.44;5018834;28;1485;-83
2022/11/09 03:23:56;;;;;;;;;;;;;;;7.72;73.40;95841.69;5035249;28;1053;-84
2022/11/09 03:26:23;;;;;;;;;;;;;;;7.89;73.60;95844.75;5034996;28;1985;-84
2022/11/09 03:28:49;;;;;;;;;;;;;;;7.84;74.15;95853.13;5034836;28;1065;-83
2022/11/09 03:31:15;;;;;;;;;;;;;;;7.99;73.72;95849.19;5034923;28;1132;-82
2022/11/09 03:33:41;;;;;;;;;;;;;;;7.94;74.18;95854.03;5036222;28;978;-84
2022/11/09 03:36:07;;;;;;;;;;;;;;;7.88;74.83;95851.91;5034968;28;1072;-83
2022/11/09 03:38:34;;;;;;;;;;;;;;;7.87;75.67;95852.00;5018130;28;1468;-83
2022/11/09 03:41:02;;;;;;;;;;;;;;;7.90;76.32;95855.28;5034815;28;950;-84
2022/11/09 03:43:29;;;;;;;;;;;;;;;7.90;77.24;95854.44;5035736;28;1049;-84
2022/11/09 03:45:55;;;;;;;;;;;;;;;7.96;77.36;95860.09;5034505;28;1914;-84
2022/11/09 03:48:21;;;;;;;;;;;;;;;8.05;77.52;95857.66;5034650;28;1343;-84
2022/11/09 03:50:47;;;;;;;;;;;;;;;8.01;78.00;95852.56;5034640;28;1107;-84
2022/11/09 03:53:13;;;;;;;;;;;;;;;8.02;79.35;95861.38;5018039;28;1284;-84
2022/11/09 03:55:40;;;;;;;;;;;;;;;8.26;77.81;95857.66;5035561;28;1792;-84
2022/11/09 03:58:06;;;;;;;;;;;;;;;8.31;78.22;95866.94;5034260;28;1279;-84
2022/11/09 04:00:33;;;;;;;;;;;;;;;8.29;77.73;95863.56;5035309;28;947;-82
2022/11/09 04:02:59;;;;;;;;;;;;;;;8.27;78.47;95864.66;5035576;28;1006;-83
2022/11/09 04:05:25;;;;;;;;;;;;;;;8.31;78.80;95874.94;5035171;28;1910;-83
2022/11/09 04:07:52;;;;;;;;;;;;;;;8.34;78.11;95869.34;5018025;28;1535;-83
2022/11/09 04:10:19;;;;;;;;;;;;;;;8.40;76.98;95868.84;5034083;28;963;-83
2022/11/09 04:12:45;;;;;;;;;;;;;;;8.40;76.11;95863.50;5035164;28;1073;-73
2022/11/09 04:15:12;;;;;;;;;;;;;;;8.33;75.92;95867.66;5035182;28;958;-79
2022/11/09 04:17:39;;;;;;;;;;;;;;;8.21;76.10;95861.56;5017813;28;1482;-79
2022/11/09 04:20:07;;;;;;;;;;;;;;;8.27;75.74;95872.66;5033912;28;1062;-78
2022/11/09 04:22:34;;;;;;;;;;;;;;;8.22;75.99;95862.41;5034964;28;1042;-78
2022/11/09 04:25:00;;;;;;;;;;;;;;;8.34;75.36;95864.00;5033859;28;1917;-78
2022/11/09 04:27:28;;;;;;;;;;;;;;;8.40;75.96;95862.66;5033568;28;1062;-78
2022/11/09 04:29:55;;;;;;;;;;;;;;;8.34;76.70;95863.16;5034881;28;1117;-79
2022/11/09 04:32:21;;;;;;;;;;;;;;;8.42;77.23;95860.72;5033575;28;1134;-79
2022/11/09 04:34:47;;;;;;;;;;;;;;;8.52;77.33;95861.66;5035020;28;1696;-79
2022/11/09 04:37:14;;;;;;;;;;;;;;;8.27;78.46;95862.00;5033401;28;1562;-79
2022/11/09 04:39:40;;;;;;;;;;;;;;;8.24;76.32;95865.78;5032766;28;1410;-78
2022/11/09 04:42:07;;;;;;;;;;;;;;;8.17;75.71;95869.91;5033333;28;1054;-78
2022/11/09 04:44:33;;;;;;;;;;;;;;;8.11;75.19;95868.63;5017129;28;2001;-78
2022/11/09 04:46:59;;;;;;;;;;;;;;;8.19;74.51;95875.97;5033355;28;1046;-79
2022/11/09 04:49:26;;;;;;;;;;;;;;;8.10;74.09;95874.06;5034578;28;1039;-78
2022/11/09 04:51:52;;;;;;;;;;;;;;;7.79;75.17;95869.47;5033426;28;1053;-78
2022/11/09 04:54:18;;;;;;;;;;;;;;;7.79;75.48;95881.94;5032994;28;1826;-78
2022/11/09 04:56:44;;;;;;;;;;;;;;;7.78;75.17;95883.75;5034265;28;1070;-78
2022/11/09 04:59:11;;;;;;;;;;;;;;;7.73;75.15;95880.63;5033175;28;1136;-79
2022/11/09 05:01:37;;;;;;;;;;;;;;;7.62;75.11;95878.81;5034303;28;1140;-79
2022/11/09 05:04:03;;;;;;;;;;;;;;;7.71;74.82;95881.72;5033144;28;1096;-79
2022/11/09 05:06:33;;;;;;;;;;;;;;;7.78;73.91;95888.25;5032858;28;1887;-79
2022/11/09 05:09:01;;;;;;;;;;;;;;;7.80;74.35;95886.31;5034279;28;961;-79
2022/11/09 05:11:27;;;;;;;;;;;;;;;7.90;74.11;95884.56;5033918;28;1061;-79
2022/11/09 05:13:54;;;;;;;;;;;;;;;7.86;74.60;95895.59;5032916;28;1112;-79
2022/11/09 05:16:21;;;;;;;;;;;;;;;7.95;74.48;95894.84;5016728;28;1552;-71
2022/11/09 05:18:48;;;;;;;;;;;;;;;7.95;74.89;95897.50;5034088;28;1027;-73
2022/11/09 05:21:14;;;;;;;;;;;;;;;8.01;74.96;95895.16;5032934;28;1500;-72
2022/11/09 05:23:58;;;;;;;;;;;;;;;8.05;74.68;95892.28;5032981;28;1449;-75
2022/11/09 05:26:26;;;;;;;;;;;;;;;8.10;74.37;95887.38;5033993;28;1906;-72
2022/11/09 05:28:52;;;;;;;;;;;;;;;8.13;74.76;95898.63;5032652;28;1113;-75
2022/11/09 05:31:19;;;;;;;;;;;;;;;8.28;74.71;95904.50;5033663;28;1121;-75
2022/11/09 05:33:50;;;;;;;;;;;;;;;8.40;74.82;95902.63;5032675;28;954;-74
2022/11/09 05:36:17;;;;;;;;;;;;;;;8.57;74.87;95903.88;5032667;28;1485;-77
2022/11/09 05:38:43;;;;;;;;;;;;;;;8.55;75.63;95911.16;5038255;28;1534;-77
2022/11/09 05:41:10;;;;;;;;;;;;;;;8.61;75.75;95910.66;5053472;28;1058;-74
2022/11/09 05:43:37;;;;;;;;;;;;;;;8.71;75.57;95902.72;5053273;28;1116;-73
2022/11/09 05:46:03;;;;;;;;;;;;;;;8.83;74.96;95908.84;5035780;28;1906;-76
2022/11/09 05:48:30;;;;;;;;;;;;;;;8.90;74.77;95910.84;5053315;28;1263;-71
2022/11/09 05:50:59;;;;;;;;;;;;;;;8.73;75.22;95916.78;5035220;28;1058;-73
2022/11/09 05:53:26;;;;;;;;;;;;;;;8.63;76.68;95914.03;5053077;28;1010;-73
2022/11/09 05:55:52;;;;;;;;;;;;;;;8.66;77.92;95916.44;5053171;28;1772;-71
2022/11/09 05:58:18;;;;;;;;;;;;;;;8.74;77.64;95916.63;5053349;28;1010;-78
2022/11/09 06:00:44;;;;;;;;;;;;;;;8.91;76.74;95914.34;5053388;28;1068;-74
2022/11/09 06:03:10;;;;;;;;;;;;;;;9.02;75.78;95922.25;5053184;28;1101;-76
2022/11/09 06:05:38;;;;;;;;;;;;;;;9.02;75.51;95926.75;5035372;28;1907;-73
2022/11/09 06:08:14;;;;;;;;;;;;;;;9.01;76.11;95928.59;5053104;28;1058;-72
2022/11/09 06:10:41;;;;;;;;;;;;;;;9.05;75.62;95932.69;5053441;28;1005;-70
2022/11/09 06:13:07;;;;;;;;;;;;;;;9.10;75.81;95926.94;5053051;28;1085;-70
2022/11/09 06:15:33;;;;;;;;;;;;;;;9.11;75.72;95931.31;5053085;28;991;-71
2022/11/09 06:17:59;;;;;;;;;;;;;;;9.16;75.81;95929.06;5053086;28;987;-71
2022/11/09 06:20:26;;;;;;;;;;;;;;;9.14;76.13;95936.34;5052848;28;1078;-82
2022/11/09 06:22:53;;;;;;;;;;;;;;;9.17;76.36;95939.59;5035574;28;983;-74
2022/11/09 06:25:20;;;;;;;;;;;;;;;9.19;76.16;95931.47;5035114;28;1989;-73
2022/11/09 06:27:47;;;;;;;;;;;;;;;9.26;75.73;95939.78;5053124;28;1056;-73
2022/11/09 06:30:13;;;;;;;;;;;;;;;9.30;75.65;95936.72;5053052;28;1009;-81
2022/11/09 06:32:40;;;;;;;;;;;;;;;9.27;75.74;95936.13;5052908;28;954;-81
2022/11/09 06:35:06;;;;;;;;;;;;;;;9.25;75.86;95938.94;5052855;28;1102;-79
2022/11/09 06:37:32;;;;;;;;;;;;;;;9.31;76.33;95938.41;5052899;28;1195;-79
2022/11/09 06:39:58;;;;;;;;;;;;;;;9.35;76.49;95939.84;5052753;28;1097;-86
2022/11/09 06:42:24;;;;;;;;;;;;;;;9.42;75.65;95949.97;5035227;28;1029;-81
2022/11/09 06:44:50;;;;;;;;;;;;;;;9.46;75.86;95952.22;5052735;28;1898;-68
2022/11/09 06:47:17;;;;;;;;;;;;;;;9.38;76.46;95950.22;5052645;28;1097;-66
2022/11/09 06:49:43;;;;;;;;;;;;;;;9.41;76.27;95953.59;5052626;28;1284;-62
2022/11/09 06:52:09;;;;;;;;;;;;;;;9.41;75.97;95957.16;5053026;28;1017;-83
2022/11/09 06:54:35;;;;;;;;;;;;;;;9.37;76.24;95950.34;5035004;28;1827;-76
2022/11/09 06:57:01;;;;;;;;;;;;;;;9.43;75.50;95947.19;5034941;28;1198;-77
2022/11/09 06:59:27;;;;;;;;;;;;;;;9.40;75.71;95951.94;5052557;28;1097;-77
2022/11/09 07:01:54;;;;;;;;;;;;;;;9.45;75.75;95952.38;5052667;28;1041;-77
2022/11/09 07:04:20;;;;;;;;;;;;;;;9.47;75.59;95948.59;5021507;28;1565;-76
2022/11/09 07:06:46;;;;;;;;;;;;;;;9.51;75.75;95954.50;5038553;28;1918;-76
2022/11/09 07:09:12;;;;;;;;;;;;;;;9.54;75.68;95948.88;5038859;28;1010;-76
2022/11/09 07:11:38;;;;;;;;;;;;;;;9.56;75.53;95953.13;5056463;28;1069;-76
2022/11/09 07:14:04;;;;;;;;;;;;;;;9.58;75.67;95955.66;5056212;28;1061;-76
2022/11/09 07:16:31;;;;;;;;;;;;;;;9.64;75.44;95954.28;5056053;28;1053;-74
2022/11/09 07:18:57;;;;;;;;;;;;;;;9.62;75.86;95949.06;5038262;28;1129;-83
2022/11/09 07:21:23;;;;;;;;;;;;;;;9.66;75.76;95952.31;5055975;28;1058;-86
2022/11/09 07:23:49;;;;;;;;;;;;;;;9.73;75.31;95948.09;5056081;28;1058;-79
2022/11/09 07:26:16;;;;;;;;;;;;;;;9.75;75.41;95944.31;5056051;28;1918;-82
2022/11/09 07:28:42;;;;;;;;;;;;;;;9.69;75.80;95952.84;5021981;28;1623;-83
2022/11/09 07:31:08;;;;;;;;;;;;;;;9.74;76.24;95937.28;5056135;28;1113;-82
2022/11/09 07:33:35;;;;;;;;;;;;;;;9.73;76.05;95948.09;5038070;28;1061;-84
2022/11/09 07:36:03;;;;;;;;;;;;;;;9.81;76.00;95940.25;5038580;28;1033;-84
2022/11/09 07:38:30;;;;;;;;;;;;;;;9.87;75.68;95942.38;5055524;28;1243;-83
2022/11/09 07:41:00;;;;;;;;;;;;;;;9.88;75.59;95948.56;5056050;28;1067;-84
2022/11/09 07:43:26;;;;;;;;;;;;;;;9.87;75.87;95946.88;5038080;28;1260;-82
2022/11/09 07:45:53;;;;;;;;;;;;;;;9.88;75.97;95938.72;5038200;28;1997;-83
2022/11/09 07:48:19;;;;;;;;;;;;;;;9.91;75.63;95941.13;5055559;28;986;-83
2022/11/09 07:50:46;;;;;;;;;;;;;;;9.93;75.91;95947.16;5055579;28;1140;-83
2022/11/09 07:53:13;;;;;;;;;;;;;;;9.92;76.89;95944.63;5037967;28;1559;-83
2022/11/09 07:55:40;;;;;;;;;;;;;;;9.97;75.75;95945.91;5055394;28;1736;-83
2022/11/09 07:58:08;;;;;;;;;;;;;;;9.93;76.50;95944.50;5037777;28;1054;-81
2022/11/09 08:00:35;;;;;;;;;;;;;;;10.05;76.48;95941.69;5055482;28;1053;-82
2022/11/09 08:03:01;;;;;;;;;;;;;;;10.13;76.06;95947.19;5055357;28;1032;-82
2022/11/09 08:05:28;;;;;;;;;;;;;;;10.16;76.01;95950.44;5037422;28;1910;-81
2022/11/09 08:07:59;;;;;;;;;;;;;;;10.21;75.48;95946.53;5055409;28;1034;-82
2022/11/09 08:10:25;;;;;;;;;;;;;;;10.10;75.45;95940.31;5037644;28;970;-82
2022/11/09 08:12:55;;;;;;;;;;;;;;;10.10;76.17;95942.13;5037833;28;1232;-82
2022/11/09 08:15:22;;;;;;;;;;;;;;;10.19;76.35;95945.78;5020043;28;1489;-77
2022/11/09 08:17:48;;;;;;;;;;;;;;;10.14;75.59;95947.06;5055254;28;994;-77
2022/11/09 08:20:15;;;;;;;;;;;;;;;10.30;75.49;95945.66;5055106;28;1026;-77
2022/11/09 08:22:41;;;;;;;;;;;;;;;10.28;75.57;95943.16;5037202;28;1157;-77
2022/11/09 08:25:07;;;;;;;;;;;;;;;10.32;75.87;95943.72;5054755;28;1984;-77
2022/11/09 08:27:38;;;;;;;;;;;;;;;10.36;75.81;95947.81;5054835;28;1077;-77
2022/11/09 08:30:06;;;;;;;;;;;;;;;10.47;76.02;95946.81;5054701;28;1117;-77
2022/11/09 08:32:32;;;;;;;;;;;;;;;10.54;76.29;95934.59;5054866;28;1034;-78
2022/11/09 08:34:58;;;;;;;;;;;;;;;10.47;76.18;95946.81;5054676;28;1069;-77
2022/11/09 08:37:24;;;;;;;;;;;;;;;10.33;76.32;95948.09;5054621;28;1195;-77
2022/11/09 08:39:50;;;;;;;;;;;;;;;10.40;76.71;95951.06;5054478;28;1151;-77
2022/11/09 08:42:16;;;;;;;;;;;;;;;10.48;76.56;95949.34;5054526;28;1033;-77
2022/11/09 08:44:43;;;;;;;;;;;;;;;10.62;76.41;95949.91;5054317;28;1902;-77
2022/11/09 08:47:09;;;;;;;;;;;;;;;10.68;76.47;95944.84;5054469;28;1108;-74
2022/11/09 08:49:35;;;;;;;;;;;;;;;10.75;75.95;95953.13;5054530;28;1118;-75
2022/11/09 08:52:01;;;;;;;;;;;;;;;10.81;76.13;95946.38;5054530;28;1057;-77
2022/11/09 08:54:27;;;;;;;;;;;;;;;10.90;76.49;95956.22;5054053;28;1637;-76
2022/11/09 08:56:54;;;;;;;;;;;;;;;10.99;76.90;95951.84;5054318;28;1001;-77
2022/11/09 08:59:21;;;;;;;;;;;;;;;10.93;76.48;95945.25;5054072;28;1113;-61
2022/11/09 09:01:47;;;;;;;;;;;;;;;10.90;77.08;95946.34;5054229;28;1109;-62
2022/11/09 09:04:13;;;;;;;;;;;;;;;10.87;77.31;95943.13;5054382;28;1032;-61
2022/11/09 09:06:39;;;;;;;;;;;;;;;10.77;77.41;95948.50;5054101;28;1989;-61
2022/11/09 09:09:05;;;;;;;;;;;;;;;10.91;78.02;95944.53;5054066;28;1045;-61
2022/11/09 09:11:31;;;;;;;;;;;;;;;10.97;78.88;95949.31;5036324;28;1064;-61
2022/11/09 09:13:57;;;;;;;;;;;;;;;11.09;78.13;95947.31;5053830;28;1124;-61
2022/11/09 09:16:23;;;;;;;;;;;;;;;11.11;77.61;95945.31;5053844;28;1042;-61
2022/11/09 09:18:49;;;;;;;;;;;;;;;11.04;78.03;95945.09;5053872;28;1078;-61
2022/11/09 09:21:15;;;;;;;;;;;;;;;11.10;78.32;95947.16;5053695;28;1046;-61
2022/11/09 09:23:41;;;;;;;;;;;;;;;11.11;78.78;95946.16;5053799;28;1038;-61
2022/11/09 09:26:07;;;;;;;;;;;;;;;11.14;78.67;95950.41;5035965;28;1906;-61
2022/11/09 09:28:33;;;;;;;;;;;;;;;11.16;78.42;95945.75;5053607;28;1045;-61
2022/11/09 09:31:00;;;;;;;;;;;;;;;11.20;78.82;95947.13;5053889;28;1061;-61
2022/11/09 09:33:26;;;;;;;;;;;;;;;11.27;77.98;95939.38;5053748;28;1032;-61
2022/11/09 09:35:56;;;;;;;;;;;;;;;11.31;78.48;95952.31;5053769;28;982;-61
2022/11/09 09:38:22;;;;;;;;;;;;;;;11.38;78.74;95941.84;5053297;28;1374;-62
2022/11/09 09:40:55;;;;;;;;;;;;;;;11.41;78.54;95938.88;5053612;28;958;-61
2022/11/09 09:43:30;;;;;;;;;;;;;;;11.44;78.26;95935.06;5053297;28;1114;-61
2022/11/09 09:45:57;;;;;;;;;;;;;;;11.34;78.73;95935.09;5053569;28;1914;-61
2022/11/09 09:48:39;;;;;;;;;;;;;;;11.47;78.29;95932.94;5053474;28;1029;-61
2022/11/09 09:51:20;;;;;;;;;;;;;;;11.58;77.82;95936.44;5053472;28;963;-61
2022/11/09 09:53:54;;;;;;;;;;;;;;;11.67;77.82;95928.34;5035483;28;1716;-61
2022/11/09 09:56:22;;;;;;;;;;;;;;;11.71;77.92;95919.03;5053208;28;1042;-61
2022/11/09 09:59:01;;;;;;;;;;;;;;;11.73;77.92;95919.72;5053247;28;1113;-61
2022/11/09 10:01:34;;;;;;;;;;;;;;;11.75;77.77;95916.06;5053312;28;994;-61
2022/11/09 10:04:00;;;;;;;;;;;;;;;11.85;77.78;95919.50;5053262;28;1034;-61
2022/11/09 10:06:42;;;;;;;;;;;;;;;11.78;78.09;95905.00;5052955;28;1966;-61
2022/11/09 10:09:17;;;;;;;;;;;;;;;11.78;77.98;95911.25;5053125;28;1123;-61
2022/11/09 10:11:49;;;;;;;;;;;;;;;11.81;78.01;95912.75;5053178;28;1085;-61
2022/11/09 10:14:15;;;;;;;;;;;;;;;11.93;77.49;95908.91;5053094;28;1085;-61
2022/11/09 10:16:50;;;;;;;;;;;;;;;12.00;77.72;95911.84;5053068;28;1049;-61
2022/11/09 10:19:25;;;;;;;;;;;;;;;12.00;78.27;95910.00;5053236;28;1054;-62
2022/11/09 10:22:02;;;;;;;;;;;;;;;12.03;77.77;95901.66;5053027;28;1038;-61
2022/11/09 10:24:46;;;;;;;;;;;;;;;12.03;78.45;95900.81;5052942;28;1069;-61
2022/11/09 10:27:23;;;;;;;;;;;;;;;12.08;78.03;95899.38;5035254;28;1041;-61
2022/11/09 10:29:49;;;;;;;;;;;;;;;12.20;77.47;95893.75;5053237;28;1040;-61
2022/11/09 10:32:17;;;;;;;;;;;;;;;12.26;77.68;95894.00;5053018;28;1045;-62
2022/11/09 10:35:01;;;;;;;;;;;;;;;12.26;78.17;95894.00;5052927;28;1046;-62
2022/11/09 10:37:33;;;;;;;;;;;;;;;12.29;78.20;95896.38;5052793;28;1195;-61
2022/11/09 10:40:15;;;;;;;;;;;;;;;12.30;78.39;95892.69;5056846;28;1270;-61
2022/11/09 10:42:48;;;;;;;;;;;;;;;12.35;77.96;95891.38;5057018;28;1006;-61
2022/11/09 10:45:24;;;;;;;;;;;;;;;12.36;77.33;95882.34;5056803;28;1902;-61
2022/11/09 10:47:51;;;;;;;;;;;;;;;12.40;77.55;95883.72;5039474;28;1009;-61
2022/11/09 10:50:20;;;;;;;;;;;;;;;12.40;77.53;95884.56;5056900;28;1074;-62
2022/11/09 10:52:46;;;;;;;;;;;;;;;12.40;77.11;95881.88;5056865;28;989;-60
2022/11/09 10:55:25;;;;;;;;;;;;;;;12.46;77.43;95877.75;5056517;28;1713;-60
2022/11/09 10:58:21;;;;;;;;;;;;;;;12.41;78.00;95869.34;5056542;28;1104;-60
2022/11/09 11:00:59;;;;;;;;;;;;;;;12.45;77.62;95876.06;5043311;28;1189;-60
2022/11/09 11:03:25;;;;;;;;;;;;;;;12.58;77.08;95871.16;5056441;28;1038;-60
2022/11/09 11:05:59;;;;;;;;;;;;;;;12.62;77.00;95869.00;5056519;28;1977;-61
2022/11/09 11:08:30;;;;;;;;;;;;;;;12.73;76.60;95857.16;5056263;28;1033;-61
2022/11/09 11:11:23;;;;;;;;;;;;;;;12.81;76.43;95860.75;5056374;28;1029;-60
2022/11/09 11:13:49;;;;;;;;;;;;;;;12.92;75.48;95858.78;5053542;28;1184;-61
2022/11/09 11:16:15;;;;;;;;;;;;;;;12.85;77.01;95848.69;5056282;28;1032;-61
2022/11/09 11:18:44;;;;;;;;;;;;;;;12.88;76.36;95842.16;5056317;28;994;-61
2022/11/09 11:21:13;;;;;;;;;;;;;;;12.94;75.66;95840.66;5056142;28;1061;-61
2022/11/09 11:23:39;;;;;;;;;;;;;;;13.05;74.63;95843.94;5055980;28;1129;-60
2022/11/09 11:26:19;;;;;;;;;;;;;;;13.03;74.51;95832.53;5055968;28;1981;-61
2022/11/09 11:28:49;;;;;;;;;;;;;;;13.11;74.79;95822.81;5056204;28;994;-61
2022/11/09 11:31:18;;;;;;;;;;;;;;;13.26;73.71;95821.19;5056012;28;1050;-61
2022/11/09 11:33:45;;;;;;;;;;;;;;;13.37;74.09;95825.47;5055937;28;1049;-61
2022/11/09 11:36:30;;;;;;;;;;;;;;;13.39;73.84;95816.28;5055830;28;990;-62
2022/11/09 11:39:05;;;;;;;;;;;;;;;13.45;73.59;95812.94;5055702;28;1218;-61
2022/11/09 11:41:37;;;;;;;;;;;;;;;13.36;73.70;95813.91;5055694;28;1047;-61
2022/11/09 11:44:15;;;;;;;;;;;;;;;13.33;74.41;95810.72;5056053;28;949;-61
2022/11/09 11:46:46;;;;;;;;;;;;;;;13.27;74.14;95810.31;5055475;28;1906;-61
2022/11/09 11:49:27;;;;;;;;;;;;;;;13.34;74.01;95797.13;5054758;28;1029;-61
2022/11/09 11:52:12;;;;;;;;;;;;;;;13.39;73.84;95805.53;5055543;28;1075;-61
2022/11/09 11:54:43;;;;;;;;;;;;;;;13.42;74.32;95793.63;5055862;28;1768;-61
2022/11/09 11:57:30;;;;;;;;;;;;;;;13.46;73.74;95795.81;5055450;28;1036;-60
2022/11/09 12:00:16;;;;;;;;;;;;;;;13.52;73.76;95786.25;5044954;28;1305;-60
2022/11/09 12:03:01;;;;;;;;;;;;;;;13.52;74.16;95793.47;5055496;28;1005;-60
2022/11/09 12:05:27;;;;;;;;;;;;;;;13.54;74.28;95786.91;5055085;28;1910;-60
2022/11/09 12:08:04;;;;;;;;;;;;;;;13.55;74.25;95785.94;5055418;28;967;-60
2022/11/09 12:10:39;;;;;;;;;;;;;;;13.57;73.21;95777.72;5055167;28;1069;-61
2022/11/09 12:13:05;;;;;;;;;;;;;;;13.61;73.33;95771.84;5055199;28;1042;-61
2022/11/09 12:15:38;;;;;;;;;;;;;;;13.61;73.66;95779.06;5055133;28;966;-61
2022/11/09 12:18:22;;;;;;;;;;;;;;;13.53;74.11;95779.06;5037274;28;1060;-61
2022/11/09 12:21:01;;;;;;;;;;;;;;;13.56;73.55;95770.66;5054954;28;1047;-61
2022/11/09 12:23:27;;;;;;;;;;;;;;;13.57;73.57;95778.53;5037175;28;1120;-61
2022/11/09 12:25:53;;;;;;;;;;;;;;;13.56;73.31;95763.41;5054843;28;1931;-61
2022/11/09 12:28:37;;;;;;;;;;;;;;;13.53;73.71;95776.38;5054717;28;1073;-60
2022/11/09 12:31:23;;;;;;;;;;;;;;;13.55;73.39;95759.06;5055072;28;1013;-61
2022/11/09 12:33:49;;;;;;;;;;;;;;;13.57;73.59;95756.22;5054757;28;1034;-60
2022/11/09 12:36:24;;;;;;;;;;;;;;;13.61;73.18;95746.81;5054666;28;1053;-60
2022/11/09 12:39:10;;;;;;;;;;;;;;;13.63;73.29;95753.69;5054363;28;1250;-60
2022/11/09 12:41:38;;;;;;;;;;;;;;;13.65;73.31;95750.84;5054741;28;993;-60
2022/11/09 12:44:13;;;;;;;;;;;;;;;13.70;73.56;95744.97;5054522;28;1145;-60
2022/11/09 12:46:43;;;;;;;;;;;;;;;13.69;73.36;95746.81;5054445;28;1914;-59
2022/11/09 12:49:27;;;;;;;;;;;;;;;13.59;73.66;95746.97;5054533;28;946;-60
2022/11/09 12:51:54;;;;;;;;;;;;;;;13.64;73.75;95741.13;5037047;28;1057;-60
2022/11/09 12:54:20;;;;;;;;;;;;;;;13.64;73.47;95743.81;5054325;28;1709;-60
2022/11/09 12:57:06;;;;;;;;;;;;;;;13.67;73.51;95736.22;5054441;28;1029;-60
2022/11/09 12:59:33;;;;;;;;;;;;;;;13.70;73.30;95743.16;5036592;28;1044;-60
2022/11/09 13:02:00;;;;;;;;;;;;;;;13.71;73.68;95731.38;5053668;28;1046;-60
2022/11/09 13:04:27;;;;;;;;;;;;;;;13.73;73.43;95737.41;5054288;28;974;-59
2022/11/09 13:07:02;;;;;;;;;;;;;;;13.71;73.88;95731.38;5054263;28;1910;-60
2022/11/09 13:09:29;;;;;;;;;;;;;;;13.70;73.41;95732.41;5054077;28;990;-60
2022/11/09 13:11:55;;;;;;;;;;;;;;;13.71;73.64;95730.53;5054103;28;1101;-60
2022/11/09 13:14:21;;;;;;;;;;;;;;;13.73;73.12;95729.34;5053883;28;1065;-60